Pagina principală
METAR-TAF:

METAR-TAF

Aeroporturi :

Burlington-Mount Vernon, Washington, Statele Unite ale Americii

Latitudine: 48-28-15N, longitudine: 122-25-15W, elevație: 44 m

Observații meteo curente

Raportul a fost făcut în urmă cu 37 de minute, la 20:35 UTC
Vânt calm
Temperatură 13°C
Umiditate 88%
Presiune 1018 hPa
Vizibilitate: 16.1 km
Total acoperit la o înălțime de 4900 picior

METAR: KBVS 162035Z AUTO 00000KT 10SM OVC049 13/11 A3006 RMK A01

Ora: 14:12 (21:12 UTC)


TAF: lipsă

Observații și prognoze meteo pentru peste 4.000 de aeroporturi (rapoarte METAR și TAF).

Stațiile disponibile sunt reprezentate pe hartă prin puncte galbene și roșii.

Țineți indicatorul mouse-ului pe punctul dorit pentru a vedea denumirea stației.

Apoi, faceți clic pentru a vedea observațiile și prognozele meteorologice.

Pentru a schimba harta: Pentru mărire, faceți clic pe butoanele verzi cu cruce neagră; pentru micșorare, pe butonul verde cu o liniuță; pentru hărți învecinate, pe săgețile verzi.


METAR-TAF: